sensor_id;sensor_type;location;lat;lon;timestamp;pressure;altitude;pressure_sealevel;temperature;humidity
8061;BME280;4073;42.626;25.386;2023-11-21T00:02:25;96990.84;;;6.34;100.00
8061;BME280;4073;42.626;25.386;2023-11-21T00:04:50;97020.72;;;6.46;100.00
8061;BME280;4073;42.626;25.386;2023-11-21T00:07:16;97022.72;;;6.34;100.00
8061;BME280;4073;42.626;25.386;2023-11-21T00:09:42;97020.91;;;6.39;100.00
8061;BME280;4073;42.626;25.386;2023-11-21T00:12:08;97033.31;;;6.34;100.00
8061;BME280;4073;42.626;25.386;2023-11-21T00:14:37;97014.66;;;6.29;100.00
8061;BME280;4073;42.626;25.386;2023-11-21T00:17:03;97020.34;;;6.37;100.00
8061;BME280;4073;42.626;25.386;2023-11-21T00:19:29;97017.44;;;6.39;100.00
8061;BME280;4073;42.626;25.386;2023-11-21T00:21:54;97029.13;;;6.38;100.00
8061;BME280;4073;42.626;25.386;2023-11-21T00:24:20;97020.84;;;6.13;100.00
8061;BME280;4073;42.626;25.386;2023-11-21T00:26:45;97017.94;;;6.14;100.00
8061;BME280;4073;42.626;25.386;2023-11-21T00:29:11;97017.44;;;6.17;100.00
8061;BME280;4073;42.626;25.386;2023-11-21T00:31:37;97020.09;;;6.17;100.00
8061;BME280;4073;42.626;25.386;2023-11-21T00:34:03;97016.91;;;6.15;100.00
8061;BME280;4073;42.626;25.386;2023-11-21T00:36:31;97020.91;;;6.18;100.00
8061;BME280;4073;42.626;25.386;2023-11-21T00:38:57;97014.78;;;6.17;100.00
8061;BME280;4073;42.626;25.386;2023-11-21T00:41:23;97007.16;;;5.99;100.00
8061;BME280;4073;42.626;25.386;2023-11-21T00:43:48;97018.00;;;5.98;100.00
8061;BME280;4073;42.626;25.386;2023-11-21T00:46:14;97018.97;;;5.92;100.00
8061;BME280;4073;42.626;25.386;2023-11-21T00:48:39;97020.13;;;5.79;100.00
8061;BME280;4073;42.626;25.386;2023-11-21T00:51:05;97025.25;;;5.86;100.00
8061;BME280;4073;42.626;25.386;2023-11-21T00:53:31;97025.50;;;5.84;100.00
8061;BME280;4073;42.626;25.386;2023-11-21T00:55:57;97026.16;;;5.91;100.00
8061;BME280;4073;42.626;25.386;2023-11-21T00:58:26;97022.00;;;6.00;100.00
8061;BME280;4073;42.626;25.386;2023-11-21T01:00:51;97022.63;;;6.07;100.00
8061;BME280;4073;42.626;25.386;2023-11-21T01:03:18;97021.28;;;6.05;100.00
8061;BME280;4073;42.626;25.386;2023-11-21T01:05:44;97005.97;;;5.90;100.00
8061;BME280;4073;42.626;25.386;2023-11-21T01:08:09;96994.31;;;5.75;100.00
8061;BME280;4073;42.626;25.386;2023-11-21T01:10:35;97009.94;;;5.71;100.00
8061;BME280;4073;42.626;25.386;2023-11-21T01:13:01;97009.41;;;5.74;100.00
8061;BME280;4073;42.626;25.386;2023-11-21T01:15:27;97000.91;;;5.72;100.00
8061;BME280;4073;42.626;25.386;2023-11-21T01:17:52;97004.31;;;5.68;100.00
8061;BME280;4073;42.626;25.386;2023-11-21T01:20:18;97008.50;;;5.64;100.00
8061;BME280;4073;42.626;25.386;2023-11-21T01:22:43;97001.25;;;5.59;100.00
8061;BME280;4073;42.626;25.386;2023-11-21T01:25:10;96993.09;;;5.44;100.00
8061;BME280;4073;42.626;25.386;2023-11-21T01:27:36;96982.84;;;5.31;100.00
8061;BME280;4073;42.626;25.386;2023-11-21T01:30:03;97007.38;;;5.43;100.00
8061;BME280;4073;42.626;25.386;2023-11-21T01:32:28;97011.75;;;5.32;100.00
8061;BME280;4073;42.626;25.386;2023-11-21T01:34:54;96973.28;;;4.97;100.00
8061;BME280;4073;42.626;25.386;2023-11-21T01:37:20;96997.31;;;5.07;100.00
8061;BME280;4073;42.626;25.386;2023-11-21T01:39:47;96996.19;;;5.03;100.00
8061;BME280;4073;42.626;25.386;2023-11-21T01:42:13;96997.69;;;4.99;100.00
8061;BME280;4073;42.626;25.386;2023-11-21T01:44:39;96998.44;;;4.94;100.00
8061;BME280;4073;42.626;25.386;2023-11-21T01:47:08;96987.09;;;4.99;100.00
8061;BME280;4073;42.626;25.386;2023-11-21T01:49:36;96994.25;;;4.98;100.00
8061;BME280;4073;42.626;25.386;2023-11-21T01:52:03;96996.31;;;4.96;100.00
8061;BME280;4073;42.626;25.386;2023-11-21T01:54:29;97003.56;;;5.01;100.00
8061;BME280;4073;42.626;25.386;2023-11-21T01:57:00;96991.34;;;5.00;100.00
8061;BME280;4073;42.626;25.386;2023-11-21T01:59:34;96988.13;;;4.98;100.00
8061;BME280;4073;42.626;25.386;2023-11-21T02:01:59;97001.47;;;5.03;100.00
8061;BME280;4073;42.626;25.386;2023-11-21T02:04:25;96988.72;;;5.00;100.00
8061;BME280;4073;42.626;25.386;2023-11-21T02:06:52;96995.91;;;5.04;100.00
8061;BME280;4073;42.626;25.386;2023-11-21T02:09:24;97000.97;;;5.06;100.00
8061;BME280;4073;42.626;25.386;2023-11-21T02:11:49;96989.91;;;5.09;100.00
8061;BME280;4073;42.626;25.386;2023-11-21T02:14:15;96995.78;;;5.11;100.00
8061;BME280;4073;42.626;25.386;2023-11-21T02:16:40;96989.13;;;5.08;100.00
8061;BME280;4073;42.626;25.386;2023-11-21T02:19:07;96995.66;;;5.06;100.00
8061;BME280;4073;42.626;25.386;2023-11-21T02:21:34;96981.78;;;4.99;100.00
8061;BME280;4073;42.626;25.386;2023-11-21T02:24:01;96976.41;;;4.94;100.00
8061;BME280;4073;42.626;25.386;2023-11-21T02:26:27;96976.41;;;4.94;100.00
8061;BME280;4073;42.626;25.386;2023-11-21T02:28:52;96985.16;;;4.78;100.00
8061;BME280;4073;42.626;25.386;2023-11-21T02:31:18;96984.72;;;4.69;100.00
8061;BME280;4073;42.626;25.386;2023-11-21T02:33:44;96986.66;;;4.57;100.00
8061;BME280;4073;42.626;25.386;2023-11-21T02:36:09;96982.63;;;4.55;100.00
8061;BME280;4073;42.626;25.386;2023-11-21T02:38:35;96979.09;;;4.49;100.00
8061;BME280;4073;42.626;25.386;2023-11-21T02:41:00;96981.19;;;4.47;100.00
8061;BME280;4073;42.626;25.386;2023-11-21T02:43:26;96975.25;;;4.57;100.00
8061;BME280;4073;42.626;25.386;2023-11-21T02:45:51;96974.91;;;4.53;100.00
8061;BME280;4073;42.626;25.386;2023-11-21T02:48:17;96974.78;;;4.60;100.00
8061;BME280;4073;42.626;25.386;2023-11-21T02:50:42;96962.91;;;4.62;100.00
8061;BME280;4073;42.626;25.386;2023-11-21T02:53:08;96970.59;;;4.64;100.00
8061;BME280;4073;42.626;25.386;2023-11-21T02:55:36;96982.09;;;4.69;100.00
8061;BME280;4073;42.626;25.386;2023-11-21T02:58:02;96965.97;;;4.71;100.00
8061;BME280;4073;42.626;25.386;2023-11-21T03:00:29;96960.03;;;4.64;100.00
8061;BME280;4073;42.626;25.386;2023-11-21T03:02:55;96981.03;;;4.70;100.00
8061;BME280;4073;42.626;25.386;2023-11-21T03:05:21;96986.25;;;4.65;100.00
8061;BME280;4073;42.626;25.386;2023-11-21T03:07:47;96986.25;;;4.65;100.00
8061;BME280;4073;42.626;25.386;2023-11-21T03:10:12;96995.81;;;4.66;100.00
8061;BME280;4073;42.626;25.386;2023-11-21T03:12:38;96988.03;;;4.60;100.00
8061;BME280;4073;42.626;25.386;2023-11-21T03:15:06;96988.97;;;4.54;100.00
8061;BME280;4073;42.626;25.386;2023-11-21T03:17:31;96978.78;;;4.46;100.00
8061;BME280;4073;42.626;25.386;2023-11-21T03:19:59;96997.41;;;4.39;100.00
8061;BME280;4073;42.626;25.386;2023-11-21T03:22:25;96982.41;;;4.28;100.00
8061;BME280;4073;42.626;25.386;2023-11-21T03:24:50;96993.19;;;4.38;100.00
8061;BME280;4073;42.626;25.386;2023-11-21T03:27:16;96991.91;;;4.41;100.00
8061;BME280;4073;42.626;25.386;2023-11-21T03:29:41;96978.34;;;4.37;100.00
8061;BME280;4073;42.626;25.386;2023-11-21T03:32:07;96992.78;;;4.46;100.00
8061;BME280;4073;42.626;25.386;2023-11-21T03:34:32;96988.78;;;4.44;100.00
8061;BME280;4073;42.626;25.386;2023-11-21T03:36:58;96976.94;;;4.35;100.00
8061;BME280;4073;42.626;25.386;2023-11-21T03:39:24;96981.78;;;4.38;100.00
8061;BME280;4073;42.626;25.386;2023-11-21T03:41:51;96980.34;;;4.30;100.00
8061;BME280;4073;42.626;25.386;2023-11-21T03:44:17;96991.25;;;4.34;100.00
8061;BME280;4073;42.626;25.386;2023-11-21T03:46:43;96997.00;;;4.31;100.00
8061;BME280;4073;42.626;25.386;2023-11-21T03:49:09;97004.28;;;4.24;100.00
8061;BME280;4073;42.626;25.386;2023-11-21T03:51:36;97008.66;;;4.18;100.00
8061;BME280;4073;42.626;25.386;2023-11-21T03:54:02;97012.97;;;4.08;100.00
8061;BME280;4073;42.626;25.386;2023-11-21T03:56:28;97012.03;;;4.02;100.00
8061;BME280;4073;42.626;25.386;2023-11-21T03:58:53;97014.38;;;3.99;100.00
8061;BME280;4073;42.626;25.386;2023-11-21T04:01:22;97011.13;;;3.97;100.00
8061;BME280;4073;42.626;25.386;2023-11-21T04:03:49;97014.47;;;3.92;100.00
8061;BME280;4073;42.626;25.386;2023-11-21T04:06:14;97013.09;;;3.90;100.00
8061;BME280;4073;42.626;25.386;2023-11-21T04:08:39;97019.53;;;3.94;100.00
8061;BME280;4073;42.626;25.386;2023-11-21T04:11:05;97024.38;;;3.85;100.00
8061;BME280;4073;42.626;25.386;2023-11-21T04:13:31;97018.97;;;3.92;100.00
8061;BME280;4073;42.626;25.386;2023-11-21T04:15:56;97014.16;;;3.89;100.00
8061;BME280;4073;42.626;25.386;2023-11-21T04:18:22;97016.66;;;3.95;100.00
8061;BME280;4073;42.626;25.386;2023-11-21T04:20:48;97011.72;;;3.99;100.00
8061;BME280;4073;42.626;25.386;2023-11-21T04:23:14;97001.69;;;4.01;100.00
8061;BME280;4073;42.626;25.386;2023-11-21T04:25:40;97012.75;;;3.98;100.00
8061;BME280;4073;42.626;25.386;2023-11-21T04:28:06;97005.41;;;3.88;100.00
8061;BME280;4073;42.626;25.386;2023-11-21T04:30:31;97008.75;;;3.84;100.00
8061;BME280;4073;42.626;25.386;2023-11-21T04:32:58;97007.97;;;3.83;100.00
8061;BME280;4073;42.626;25.386;2023-11-21T04:35:23;96998.53;;;3.76;100.00
8061;BME280;4073;42.626;25.386;2023-11-21T04:37:49;97015.66;;;3.85;100.00
8061;BME280;4073;42.626;25.386;2023-11-21T04:40:16;97010.72;;;3.77;100.00
8061;BME280;4073;42.626;25.386;2023-11-21T04:42:41;97011.88;;;3.81;100.00
8061;BME280;4073;42.626;25.386;2023-11-21T04:45:08;97018.31;;;3.85;100.00
8061;BME280;4073;42.626;25.386;2023-11-21T04:47:34;97021.06;;;3.78;100.00
8061;BME280;4073;42.626;25.386;2023-11-21T04:50:00;97026.78;;;3.87;100.00
8061;BME280;4073;42.626;25.386;2023-11-21T04:52:25;97007.72;;;3.85;100.00
8061;BME280;4073;42.626;25.386;2023-11-21T04:54:51;97009.91;;;3.99;100.00
8061;BME280;4073;42.626;25.386;2023-11-21T04:57:16;96997.91;;;3.97;100.00
8061;BME280;4073;42.626;25.386;2023-11-21T04:59:44;97012.53;;;3.99;100.00
8061;BME280;4073;42.626;25.386;2023-11-21T05:02:09;97018.59;;;4.00;100.00
8061;BME280;4073;42.626;25.386;2023-11-21T05:04:34;97011.84;;;3.92;100.00
8061;BME280;4073;42.626;25.386;2023-11-21T05:07:00;97029.06;;;4.06;100.00
8061;BME280;4073;42.626;25.386;2023-11-21T05:09:26;97019.97;;;4.02;100.00
8061;BME280;4073;42.626;25.386;2023-11-21T05:11:54;97032.19;;;4.03;100.00
8061;BME280;4073;42.626;25.386;2023-11-21T05:14:19;97036.28;;;4.11;100.00
8061;BME280;4073;42.626;25.386;2023-11-21T05:16:45;97049.44;;;4.06;100.00
8061;BME280;4073;42.626;25.386;2023-11-21T05:19:11;97043.66;;;4.09;100.00
8061;BME280;4073;42.626;25.386;2023-11-21T05:21:38;97035.28;;;4.12;100.00
8061;BME280;4073;42.626;25.386;2023-11-21T05:24:04;97037.69;;;4.13;100.00
8061;BME280;4073;42.626;25.386;2023-11-21T05:26:30;97039.38;;;4.19;100.00
8061;BME280;4073;42.626;25.386;2023-11-21T05:28:56;97050.44;;;4.16;100.00
8061;BME280;4073;42.626;25.386;2023-11-21T05:31:21;97050.19;;;4.18;100.00
8061;BME280;4073;42.626;25.386;2023-11-21T05:33:47;97047.31;;;4.19;100.00
8061;BME280;4073;42.626;25.386;2023-11-21T05:36:12;97039.06;;;4.16;100.00
8061;BME280;4073;42.626;25.386;2023-11-21T05:38:38;97057.88;;;4.19;100.00
8061;BME280;4073;42.626;25.386;2023-11-21T05:41:04;97052.13;;;4.22;100.00
8061;BME280;4073;42.626;25.386;2023-11-21T05:43:30;97049.03;;;4.25;100.00
8061;BME280;4073;42.626;25.386;2023-11-21T05:45:57;97039.59;;;4.18;100.00
8061;BME280;4073;42.626;25.386;2023-11-21T05:48:22;97039.38;;;4.19;100.00
8061;BME280;4073;42.626;25.386;2023-11-21T05:50:49;97043.25;;;4.28;100.00
8061;BME280;4073;42.626;25.386;2023-11-21T05:53:15;97038.63;;;4.35;100.00
8061;BME280;4073;42.626;25.386;2023-11-21T05:55:41;97053.00;;;4.39;100.00
8061;BME280;4073;42.626;25.386;2023-11-21T05:58:07;97051.38;;;4.50;100.00
8061;BME280;4073;42.626;25.386;2023-11-21T06:00:33;97041.69;;;4.55;100.00
8061;BME280;4073;42.626;25.386;2023-11-21T06:02:58;97028.69;;;4.54;100.00
8061;BME280;4073;42.626;25.386;2023-11-21T06:05:25;97034.81;;;4.71;100.00
8061;BME280;4073;42.626;25.386;2023-11-21T06:07:52;97030.16;;;4.78;100.00
8061;BME280;4073;42.626;25.386;2023-11-21T06:10:20;97037.34;;;4.94;100.00
8061;BME280;4073;42.626;25.386;2023-11-21T06:12:46;97040.00;;;5.10;100.00
8061;BME280;4073;42.626;25.386;2023-11-21T06:15:12;97030.69;;;5.24;100.00
8061;BME280;4073;42.626;25.386;2023-11-21T06:17:39;97033.84;;;5.38;100.00
8061;BME280;4073;42.626;25.386;2023-11-21T06:20:06;97047.06;;;5.55;100.00
8061;BME280;4073;42.626;25.386;2023-11-21T06:22:38;97049.97;;;5.70;100.00
8061;BME280;4073;42.626;25.386;2023-11-21T06:25:05;97060.22;;;5.83;100.00
8061;BME280;4073;42.626;25.386;2023-11-21T06:27:50;97050.34;;;5.95;100.00
8061;BME280;4073;42.626;25.386;2023-11-21T06:30:17;97024.28;;;5.92;100.00
8061;BME280;4073;42.626;25.386;2023-11-21T06:32:44;97059.22;;;6.48;100.00
8061;BME280;4073;42.626;25.386;2023-11-21T06:35:11;97062.72;;;7.28;100.00
8061;BME280;4073;42.626;25.386;2023-11-21T06:37:37;97052.03;;;8.38;100.00
8061;BME280;4073;42.626;25.386;2023-11-21T06:40:03;97051.69;;;9.06;100.00
8061;BME280;4073;42.626;25.386;2023-11-21T06:42:32;97057.28;;;9.20;99.65
8061;BME280;4073;42.626;25.386;2023-11-21T06:44:58;97058.88;;;9.71;91.89
8061;BME280;4073;42.626;25.386;2023-11-21T06:47:24;97059.41;;;10.03;89.25
8061;BME280;4073;42.626;25.386;2023-11-21T06:49:51;97058.94;;;10.65;84.96
8061;BME280;4073;42.626;25.386;2023-11-21T06:52:17;97060.94;;;11.31;80.12
8061;BME280;4073;42.626;25.386;2023-11-21T06:54:43;97063.88;;;11.73;77.18
8061;BME280;4073;42.626;25.386;2023-11-21T06:57:09;97055.72;;;11.55;77.57
8061;BME280;4073;42.626;25.386;2023-11-21T06:59:34;97050.63;;;11.87;76.16
8061;BME280;4073;42.626;25.386;2023-11-21T07:02:00;97066.09;;;12.47;74.70
8061;BME280;4073;42.626;25.386;2023-11-21T07:04:25;97070.22;;;12.81;73.56
8061;BME280;4073;42.626;25.386;2023-11-21T07:06:51;97093.06;;;13.58;66.78
8061;BME280;4073;42.626;25.386;2023-11-21T07:09:17;97089.91;;;14.02;65.62
8061;BME280;4073;42.626;25.386;2023-11-21T07:11:43;97086.81;;;14.54;63.28
8061;BME280;4073;42.626;25.386;2023-11-21T07:14:08;97075.00;;;15.67;58.64
8061;BME280;4073;42.626;25.386;2023-11-21T07:16:37;97078.44;;;16.64;53.73
8061;BME280;4073;42.626;25.386;2023-11-21T07:19:06;97077.94;;;17.09;48.17
8061;BME280;4073;42.626;25.386;2023-11-21T07:21:35;97081.38;;;16.45;50.68
8061;BME280;4073;42.626;25.386;2023-11-21T07:24:02;97088.00;;;15.65;55.22
8061;BME280;4073;42.626;25.386;2023-11-21T07:26:28;97067.28;;;15.96;52.47
8061;BME280;4073;42.626;25.386;2023-11-21T07:28:54;97049.19;;;15.96;53.62
8061;BME280;4073;42.626;25.386;2023-11-21T07:31:19;97082.25;;;17.36;49.76
8061;BME280;4073;42.626;25.386;2023-11-21T07:33:46;97090.75;;;18.86;47.50
8061;BME280;4073;42.626;25.386;2023-11-21T07:36:15;97083.34;;;20.15;41.35
8061;BME280;4073;42.626;25.386;2023-11-21T07:38:42;97078.66;;;21.96;37.23
8061;BME280;4073;42.626;25.386;2023-11-21T07:41:08;97048.50;;;23.41;33.10
8061;BME280;4073;42.626;25.386;2023-11-21T07:43:35;97082.03;;;23.41;33.81
8061;BME280;4073;42.626;25.386;2023-11-21T07:46:04;97086.31;;;23.77;34.08
8061;BME280;4073;42.626;25.386;2023-11-21T07:48:30;97078.06;;;24.72;31.23
8061;BME280;4073;42.626;25.386;2023-11-21T07:50:57;97067.28;;;25.05;30.07
8061;BME280;4073;42.626;25.386;2023-11-21T07:53:26;97070.53;;;25.14;30.04
8061;BME280;4073;42.626;25.386;2023-11-21T07:55:54;97059.97;;;24.22;31.31
8061;BME280;4073;42.626;25.386;2023-11-21T07:58:20;97062.38;;;24.27;31.21
8061;BME280;4073;42.626;25.386;2023-11-21T08:00:45;97064.00;;;26.04;27.95
8061;BME280;4073;42.626;25.386;2023-11-21T08:03:13;97047.63;;;26.87;26.33
8061;BME280;4073;42.626;25.386;2023-11-21T08:05:39;97058.44;;;27.75;25.75
8061;BME280;4073;42.626;25.386;2023-11-21T08:08:05;97045.97;;;25.99;28.05
8061;BME280;4073;42.626;25.386;2023-11-21T08:10:30;97053.66;;;25.08;28.50
8061;BME280;4073;42.626;25.386;2023-11-21T08:12:56;97044.03;;;24.05;29.98
8061;BME280;4073;42.626;25.386;2023-11-21T08:15:21;97052.88;;;23.99;29.58
8061;BME280;4073;42.626;25.386;2023-11-21T08:17:47;97056.28;;;25.28;27.85
8061;BME280;4073;42.626;25.386;2023-11-21T08:20:13;97047.16;;;25.43;27.33
8061;BME280;4073;42.626;25.386;2023-11-21T08:22:42;97051.38;;;26.29;26.38
8061;BME280;4073;42.626;25.386;2023-11-21T08:25:08;97044.84;;;26.40;26.99
8061;BME280;4073;42.626;25.386;2023-11-21T08:27:34;97046.00;;;26.03;26.42
8061;BME280;4073;42.626;25.386;2023-11-21T08:30:03;97054.81;;;26.22;26.78
8061;BME280;4073;42.626;25.386;2023-11-21T08:32:29;97053.53;;;27.36;25.13
8061;BME280;4073;42.626;25.386;2023-11-21T08:34:58;97049.53;;;27.23;24.87
8061;BME280;4073;42.626;25.386;2023-11-21T08:37:24;97055.03;;;27.27;25.07
8061;BME280;4073;42.626;25.386;2023-11-21T08:39:52;97046.28;;;27.14;25.33
8061;BME280;4073;42.626;25.386;2023-11-21T08:42:19;97034.50;;;25.94;25.95
8061;BME280;4073;42.626;25.386;2023-11-21T08:44:45;97032.41;;;26.50;25.76
8061;BME280;4073;42.626;25.386;2023-11-21T08:47:11;97038.81;;;26.24;25.56
8061;BME280;4073;42.626;25.386;2023-11-21T08:49:37;97029.38;;;25.89;26.43
8061;BME280;4073;42.626;25.386;2023-11-21T08:52:03;97023.28;;;26.02;26.34
8061;BME280;4073;42.626;25.386;2023-11-21T08:54:30;97029.81;;;26.60;25.52
8061;BME280;4073;42.626;25.386;2023-11-21T08:56:56;97010.22;;;26.25;25.99
8061;BME280;4073;42.626;25.386;2023-11-21T08:59:24;97003.19;;;26.64;25.06
8061;BME280;4073;42.626;25.386;2023-11-21T09:01:49;97004.22;;;25.47;26.44
8061;BME280;4073;42.626;25.386;2023-11-21T09:04:15;96997.03;;;26.34;25.75
8061;BME280;4073;42.626;25.386;2023-11-21T09:06:40;96998.97;;;26.34;25.53
8061;BME280;4073;42.626;25.386;2023-11-21T09:09:06;96989.09;;;25.89;26.08
8061;BME280;4073;42.626;25.386;2023-11-21T09:11:32;96979.34;;;27.22;24.36
8061;BME280;4073;42.626;25.386;2023-11-21T09:13:59;96974.38;;;27.49;23.99
8061;BME280;4073;42.626;25.386;2023-11-21T09:16:25;96989.28;;;27.52;23.97
8061;BME280;4073;42.626;25.386;2023-11-21T09:18:51;96955.53;;;27.48;24.05
8061;BME280;4073;42.626;25.386;2023-11-21T09:21:16;96960.75;;;26.98;24.57
8061;BME280;4073;42.626;25.386;2023-11-21T09:23:44;96929.44;;;26.09;25.57
8061;BME280;4073;42.626;25.386;2023-11-21T09:26:09;96948.69;;;27.17;24.64
8061;BME280;4073;42.626;25.386;2023-11-21T09:28:35;96950.44;;;26.85;24.80
8061;BME280;4073;42.626;25.386;2023-11-21T09:31:03;96944.16;;;26.77;24.99
8061;BME280;4073;42.626;25.386;2023-11-21T09:33:29;96944.59;;;26.86;25.48
8061;BME280;4073;42.626;25.386;2023-11-21T09:35:56;96936.91;;;27.95;23.96
8061;BME280;4073;42.626;25.386;2023-11-21T09:38:23;96946.69;;;26.56;25.47
8061;BME280;4073;42.626;25.386;2023-11-21T09:40:49;96943.97;;;25.80;26.22
8061;BME280;4073;42.626;25.386;2023-11-21T09:43:18;96928.41;;;25.21;27.04
8061;BME280;4073;42.626;25.386;2023-11-21T09:45:56;96933.63;;;24.29;27.70
8061;BME280;4073;42.626;25.386;2023-11-21T09:48:26;96920.16;;;23.75;29.24
8061;BME280;4073;42.626;25.386;2023-11-21T09:50:53;96910.31;;;23.90;29.03
8061;BME280;4073;42.626;25.386;2023-11-21T09:53:22;96902.63;;;23.76;29.40
8061;BME280;4073;42.626;25.386;2023-11-21T09:55:51;96900.66;;;22.97;30.35
8061;BME280;4073;42.626;25.386;2023-11-21T09:58:18;96913.81;;;22.76;31.31
8061;BME280;4073;42.626;25.386;2023-11-21T10:00:48;96907.28;;;22.15;32.53
8061;BME280;4073;42.626;25.386;2023-11-21T10:03:15;96899.47;;;21.55;33.22
8061;BME280;4073;42.626;25.386;2023-11-21T10:05:42;96898.94;;;20.94;34.08
8061;BME280;4073;42.626;25.386;2023-11-21T10:08:10;96889.50;;;20.52;35.17
8061;BME280;4073;42.626;25.386;2023-11-21T10:10:37;96893.34;;;20.15;36.83
8061;BME280;4073;42.626;25.386;2023-11-21T10:13:05;96895.34;;;20.06;37.19
8061;BME280;4073;42.626;25.386;2023-11-21T10:15:35;96878.16;;;19.90;37.81
8061;BME280;4073;42.626;25.386;2023-11-21T10:18:05;96882.09;;;19.92;37.77
8061;BME280;4073;42.626;25.386;2023-11-21T10:20:33;96876.59;;;20.13;38.05
8061;BME280;4073;42.626;25.386;2023-11-21T10:22:59;96873.91;;;20.25;37.60
8061;BME280;4073;42.626;25.386;2023-11-21T10:25:27;96867.78;;;20.40;37.46
8061;BME280;4073;42.626;25.386;2023-11-21T10:27:58;96869.81;;;20.43;37.92
8061;BME280;4073;42.626;25.386;2023-11-21T10:30:36;96858.47;;;20.53;37.82
8061;BME280;4073;42.626;25.386;2023-11-21T10:33:03;96871.47;;;20.72;37.85
8061;BME280;4073;42.626;25.386;2023-11-21T10:35:45;96862.06;;;20.69;38.99
8061;BME280;4073;42.626;25.386;2023-11-21T10:38:17;96860.50;;;20.56;39.25
8061;BME280;4073;42.626;25.386;2023-11-21T10:40:44;96859.50;;;20.61;39.76
8061;BME280;4073;42.626;25.386;2023-11-21T10:43:10;96839.94;;;20.31;40.99
8061;BME280;4073;42.626;25.386;2023-11-21T10:45:37;96844.22;;;20.56;40.79
8061;BME280;4073;42.626;25.386;2023-11-21T10:48:07;96849.25;;;20.82;41.05
8061;BME280;4073;42.626;25.386;2023-11-21T10:50:36;96839.63;;;20.72;41.15
8061;BME280;4073;42.626;25.386;2023-11-21T10:53:05;96834.25;;;20.60;41.68
8061;BME280;4073;42.626;25.386;2023-11-21T10:55:34;96833.75;;;20.30;43.10
8061;BME280;4073;42.626;25.386;2023-11-21T10:58:04;96822.75;;;20.03;43.55
8061;BME280;4073;42.626;25.386;2023-11-21T11:00:31;96822.19;;;19.73;45.03
8061;BME280;4073;42.626;25.386;2023-11-21T11:02:57;96812.56;;;19.52;46.28
8061;BME280;4073;42.626;25.386;2023-11-21T11:05:25;96815.25;;;19.40;47.12
8061;BME280;4073;42.626;25.386;2023-11-21T11:07:58;96810.19;;;19.38;47.00
8061;BME280;4073;42.626;25.386;2023-11-21T11:10:27;96813.75;;;19.30;47.14
8061;BME280;4073;42.626;25.386;2023-11-21T11:12:55;96802.16;;;19.09;48.45
8061;BME280;4073;42.626;25.386;2023-11-21T11:15:21;96799.00;;;19.07;49.19
8061;BME280;4073;42.626;25.386;2023-11-21T11:17:48;96795.69;;;19.02;49.54
8061;BME280;4073;42.626;25.386;2023-11-21T11:20:15;96790.09;;;19.07;49.97
8061;BME280;4073;42.626;25.386;2023-11-21T11:28:27;96765.66;;;18.62;53.38
8061;BME280;4073;42.626;25.386;2023-11-21T11:31:05;96770.91;;;18.79;52.09
8061;BME280;4073;42.626;25.386;2023-11-21T11:36:55;96771.72;;;18.59;53.63
8061;BME280;4073;42.626;25.386;2023-11-21T11:39:30;96772.25;;;18.73;53.08
8061;BME280;4073;42.626;25.386;2023-11-21T11:42:03;96769.84;;;18.72;53.76
8061;BME280;4073;42.626;25.386;2023-11-21T11:47:16;96764.38;;;18.80;53.21
8061;BME280;4073;42.626;25.386;2023-11-21T11:52:48;96745.31;;;18.56;54.28
8061;BME280;4073;42.626;25.386;2023-11-21T11:55:17;96750.13;;;18.39;55.87
8061;BME280;4073;42.626;25.386;2023-11-21T11:57:49;96735.28;;;18.16;57.38
8061;BME280;4073;42.626;25.386;2023-11-21T12:00:22;96735.16;;;17.91;57.57
8061;BME280;4073;42.626;25.386;2023-11-21T12:02:52;96734.94;;;17.47;59.83
8061;BME280;4073;42.626;25.386;2023-11-21T12:05:19;96730.56;;;17.17;61.26
8061;BME280;4073;42.626;25.386;2023-11-21T12:07:52;96733.94;;;17.05;62.64
8061;BME280;4073;42.626;25.386;2023-11-21T12:10:24;96718.00;;;16.83;63.79
8061;BME280;4073;42.626;25.386;2023-11-21T12:12:52;96724.53;;;16.74;65.01
8061;BME280;4073;42.626;25.386;2023-11-21T12:15:19;96716.81;;;16.47;65.24
8061;BME280;4073;42.626;25.386;2023-11-21T12:17:45;96714.41;;;16.28;66.61
8061;BME280;4073;42.626;25.386;2023-11-21T12:20:12;96722.50;;;16.28;66.73
8061;BME280;4073;42.626;25.386;2023-11-21T12:22:47;96709.66;;;16.25;65.81
8061;BME280;4073;42.626;25.386;2023-11-21T12:25:16;96706.16;;;16.16;67.36
8061;BME280;4073;42.626;25.386;2023-11-21T12:27:51;96700.75;;;16.16;67.56
8061;BME280;4073;42.626;25.386;2023-11-21T12:30:19;96714.25;;;15.99;68.68
8061;BME280;4073;42.626;25.386;2023-11-21T12:32:51;96702.19;;;15.97;67.87
8061;BME280;4073;42.626;25.386;2023-11-21T12:35:18;96707.91;;;15.95;67.87
8061;BME280;4073;42.626;25.386;2023-11-21T12:37:45;96710.59;;;16.04;68.70
8061;BME280;4073;42.626;25.386;2023-11-21T12:40:12;96710.28;;;16.14;68.28
8061;BME280;4073;42.626;25.386;2023-11-21T12:42:45;96719.94;;;16.23;67.90
8061;BME280;4073;42.626;25.386;2023-11-21T12:47:43;96716.00;;;16.29;68.13
8061;BME280;4073;42.626;25.386;2023-11-21T12:50:10;96717.44;;;16.18;69.26
8061;BME280;4073;42.626;25.386;2023-11-21T12:52:47;96722.66;;;16.15;69.29
8061;BME280;4073;42.626;25.386;2023-11-21T12:55:19;96730.09;;;16.01;70.78
8061;BME280;4073;42.626;25.386;2023-11-21T12:57:55;96733.41;;;15.89;72.38
8061;BME280;4073;42.626;25.386;2023-11-21T13:00:28;96725.81;;;15.83;73.70
8061;BME280;4073;42.626;25.386;2023-11-21T13:02:56;96724.69;;;15.84;74.69
8061;BME280;4073;42.626;25.386;2023-11-21T13:05:35;96731.50;;;15.73;77.24
8061;BME280;4073;42.626;25.386;2023-11-21T13:08:04;96724.03;;;15.61;78.86
8061;BME280;4073;42.626;25.386;2023-11-21T13:10:34;96724.97;;;15.57;79.67
8061;BME280;4073;42.626;25.386;2023-11-21T13:13:04;96723.03;;;15.40;81.23
8061;BME280;4073;42.626;25.386;2023-11-21T13:15:40;96698.38;;;15.24;82.74
8061;BME280;4073;42.626;25.386;2023-11-21T13:18:08;96693.91;;;15.11;83.59
8061;BME280;4073;42.626;25.386;2023-11-21T13:20:36;96695.59;;;14.99;84.67
8061;BME280;4073;42.626;25.386;2023-11-21T13:23:07;96682.75;;;14.96;85.68
8061;BME280;4073;42.626;25.386;2023-11-21T13:25:33;96686.38;;;14.91;86.16
8061;BME280;4073;42.626;25.386;2023-11-21T13:27:59;96676.06;;;14.85;87.06